Time;durP1;ratioP1;P1;durP2;ratioP2;P2;SDS_P1;SDS_P2;PMS_P1;PMS_P2;Temp;Humidity;BMP_temperature;BMP_pressure;BME280_temperature;BME280_humidity;BME280_pressure;Samples;Min_cycle;Max_cycle;Signal;HPM_P1;HPM_P2
2022/10/14 00:00:34;;;;;;;23.80;17.40;;;;;;;;;;5065487;28;20017;-80
2022/10/14 00:03:00;;;;;;;22.77;17.52;;;;;;;;;;5071356;28;20036;-80
2022/10/14 00:05:26;;;;;;;21.42;16.77;;;;;;;;;;5067850;28;20005;-77
2022/10/14 00:07:52;;;;;;;24.92;17.95;;;;;;;;;;5071319;28;20041;-80
2022/10/14 00:10:18;;;;;;;22.90;16.83;;;;;;;;;;5068709;28;20115;-80
2022/10/14 00:12:46;;;;;;;23.85;16.17;;;;;;;;;;5063487;28;20032;-79
2022/10/14 00:15:12;;;;;;;21.90;17.67;;;;;;;;;;5048384;28;20032;-77
2022/10/14 00:17:38;;;;;;;23.92;17.02;;;;;;;;;;5062597;28;20098;-79
2022/10/14 00:20:05;;;;;;;20.60;16.52;;;;;;;;;;5062521;28;20028;-77
2022/10/14 00:22:31;;;;;;;23.90;16.67;;;;;;;;;;5067742;28;20016;-77
2022/10/14 00:24:57;;;;;;;22.75;16.63;;;;;;;;;;5068707;28;20036;-80
2022/10/14 00:27:24;;;;;;;23.05;16.70;;;;;;;;;;5068615;28;20029;-76
2022/10/14 00:29:50;;;;;;;22.23;17.02;;;;;;;;;;5066823;28;20373;-77
2022/10/14 00:32:16;;;;;;;23.48;16.88;;;;;;;;;;5067609;28;20463;-77
2022/10/14 00:34:42;;;;;;;22.23;16.67;;;;;;;;;;5067781;28;20021;-79
2022/10/14 00:37:08;;;;;;;23.52;16.92;;;;;;;;;;5065215;28;20040;-79
2022/10/14 00:39:34;;;;;;;20.17;17.25;;;;;;;;;;5065651;28;20073;-79
2022/10/14 00:42:00;;;;;;;22.30;16.63;;;;;;;;;;5065314;28;20040;-77
2022/10/14 00:44:26;;;;;;;26.08;17.58;;;;;;;;;;5064424;28;20044;-78
2022/10/14 00:46:53;;;;;;;19.38;16.05;;;;;;;;;;5070397;28;20055;-80
2022/10/14 00:49:33;;;;;;;22.27;17.10;;;;;;;;;;5071731;28;20113;-77
2022/10/14 00:52:03;;;;;;;23.38;16.00;;;;;;;;;;5071844;28;20021;-76
2022/10/14 00:54:32;;;;;;;25.25;16.35;;;;;;;;;;5070384;28;20021;-80
2022/10/14 00:56:58;;;;;;;26.90;17.25;;;;;;;;;;5069466;28;20021;-80
2022/10/14 00:59:24;;;;;;;21.92;16.35;;;;;;;;;;5071717;28;20017;-79
2022/10/14 01:01:50;;;;;;;24.48;17.08;;;;;;;;;;5069312;28;20031;-77
2022/10/14 01:04:16;;;;;;;20.23;15.95;;;;;;;;;;5069678;28;20051;-77
2022/10/14 01:06:53;;;;;;;23.23;17.88;;;;;;;;;;5068118;28;20017;-79
2022/10/14 01:09:39;;;;;;;22.05;17.83;;;;;;;;;;5058415;28;20037;-80
2022/10/14 01:12:11;;;;;;;22.88;16.95;;;;;;;;;;5081362;28;20020;-77
2022/10/14 01:14:37;;;;;;;24.30;17.38;;;;;;;;;;5086916;28;20055;-80
2022/10/14 01:17:10;;;;;;;24.45;17.08;;;;;;;;;;5070753;28;20893;-80
2022/10/14 01:19:42;;;;;;;21.65;16.27;;;;;;;;;;5071178;28;20493;-80
2022/10/14 01:22:16;;;;;;;26.45;17.75;;;;;;;;;;5068891;28;20048;-77
2022/10/14 01:24:43;;;;;;;24.08;17.20;;;;;;;;;;5069585;28;20033;-77
2022/10/14 01:27:13;;;;;;;27.33;18.63;;;;;;;;;;5068188;28;20616;-77
2022/10/14 01:29:51;;;;;;;22.15;17.25;;;;;;;;;;5066411;28;20134;-77
2022/10/14 01:32:25;;;;;;;23.17;17.23;;;;;;;;;;5065108;28;20021;-77
2022/10/14 01:35:23;;;;;;;27.42;17.20;;;;;;;;;;5065373;28;20021;-77
2022/10/14 01:38:10;;;;;;;26.05;17.38;;;;;;;;;;5063510;28;20064;-77
2022/10/14 01:41:11;;;;;;;26.23;16.67;;;;;;;;;;5060297;28;20041;-80
2022/10/14 01:43:38;;;;;;;26.35;18.15;;;;;;;;;;4997243;28;20031;-80
2022/10/14 01:46:05;;;;;;;22.52;17.00;;;;;;;;;;5006336;28;20042;-78
2022/10/14 01:48:33;;;;;;;27.73;18.33;;;;;;;;;;5003030;28;20046;-77
2022/10/14 01:51:00;;;;;;;26.77;16.63;;;;;;;;;;4991586;28;20038;-78
2022/10/14 01:53:31;;;;;;;24.30;17.45;;;;;;;;;;5005146;28;20077;-76
2022/10/14 01:55:58;;;;;;;20.85;16.85;;;;;;;;;;5008984;28;20010;-80
2022/10/14 01:58:25;;;;;;;22.00;16.02;;;;;;;;;;5004949;28;20061;-79
2022/10/14 02:00:52;;;;;;;23.10;17.25;;;;;;;;;;5007487;28;20015;-79
2022/10/14 02:03:18;;;;;;;23.17;16.35;;;;;;;;;;4997487;28;20081;-78
2022/10/14 02:05:44;;;;;;;26.58;16.42;;;;;;;;;;5004806;28;20041;-79
2022/10/14 02:08:28;;;;;;;23.25;16.98;;;;;;;;;;5006841;28;20014;-77
2022/10/14 02:11:23;;;;;;;24.50;16.63;;;;;;;;;;5010105;28;20041;-81
2022/10/14 02:14:05;;;;;;;22.38;16.38;;;;;;;;;;5010362;28;20034;-78
2022/10/14 02:16:42;;;;;;;26.75;15.70;;;;;;;;;;5012533;28;20026;-77
2022/10/14 02:19:26;;;;;;;19.10;15.15;;;;;;;;;;5070622;28;20017;-80
2022/10/14 02:21:55;;;;;;;24.35;15.98;;;;;;;;;;5068433;28;20032;-77
2022/10/14 02:24:39;;;;;;;21.17;16.15;;;;;;;;;;5070708;28;20025;-77
2022/10/14 02:27:09;;;;;;;21.60;15.88;;;;;;;;;;5074828;28;20047;-80
2022/10/14 02:29:36;;;;;;;25.27;16.55;;;;;;;;;;5066749;28;20033;-81
2022/10/14 02:32:05;;;;;;;20.95;16.05;;;;;;;;;;5083193;28;20033;-78
2022/10/14 02:34:32;;;;;;;22.50;16.48;;;;;;;;;;5067997;28;20061;-78
2022/10/14 02:36:58;;;;;;;24.23;16.85;;;;;;;;;;5067887;28;20009;-78
2022/10/14 02:39:27;;;;;;;23.60;16.60;;;;;;;;;;5069153;28;20028;-77
2022/10/14 02:41:54;;;;;;;22.80;16.05;;;;;;;;;;5068666;28;20052;-78
2022/10/14 02:44:20;;;;;;;19.92;15.27;;;;;;;;;;5068576;28;20032;-78
2022/10/14 02:46:46;;;;;;;21.92;16.38;;;;;;;;;;5072505;28;20032;-79
2022/10/14 02:49:12;;;;;;;20.95;14.82;;;;;;;;;;5069998;28;20106;-80
2022/10/14 02:51:38;;;;;;;22.17;16.27;;;;;;;;;;5067541;28;20029;-80
2022/10/14 02:54:04;;;;;;;25.42;15.93;;;;;;;;;;5067382;28;20028;-77
2022/10/14 02:56:30;;;;;;;25.08;15.68;;;;;;;;;;5059771;28;20124;-76
2022/10/14 02:58:56;;;;;;;20.60;15.57;;;;;;;;;;5061033;28;20114;-80
2022/10/14 03:01:22;;;;;;;21.08;15.85;;;;;;;;;;5062267;28;20017;-77
2022/10/14 03:03:48;;;;;;;19.98;15.80;;;;;;;;;;5063213;28;20029;-77
2022/10/14 03:06:14;;;;;;;23.67;15.80;;;;;;;;;;5063190;28;20067;-77
2022/10/14 03:08:41;;;;;;;24.10;17.25;;;;;;;;;;5064099;28;20085;-78
2022/10/14 03:11:07;;;;;;;22.10;15.77;;;;;;;;;;5061677;28;20540;-79
2022/10/14 03:13:33;;;;;;;24.02;15.82;;;;;;;;;;5064584;28;20029;-78
2022/10/14 03:15:59;;;;;;;19.90;16.20;;;;;;;;;;5063616;28;20028;-78
2022/10/14 03:18:25;;;;;;;23.17;16.50;;;;;;;;;;5063598;28;20445;-78
2022/10/14 03:20:51;;;;;;;30.38;16.33;;;;;;;;;;5065152;28;20371;-78
2022/10/14 03:23:17;;;;;;;26.30;15.73;;;;;;;;;;5063303;28;20029;-80
2022/10/14 03:25:44;;;;;;;21.65;16.35;;;;;;;;;;5063344;28;20096;-80
2022/10/14 03:28:10;;;;;;;24.80;15.43;;;;;;;;;;5064828;28;20069;-78
2022/10/14 03:30:36;;;;;;;21.45;15.27;;;;;;;;;;5064773;28;20044;-79
2022/10/14 03:33:02;;;;;;;22.08;15.82;;;;;;;;;;5065392;28;20087;-77
2022/10/14 03:35:28;;;;;;;22.40;15.05;;;;;;;;;;5062031;28;20099;-79
2022/10/14 03:37:54;;;;;;;24.00;15.60;;;;;;;;;;5062977;28;20491;-77
2022/10/14 03:40:21;;;;;;;20.40;15.35;;;;;;;;;;5064189;28;20097;-80
2022/10/14 03:42:47;;;;;;;20.95;15.98;;;;;;;;;;5061253;28;20022;-78
2022/10/14 03:45:13;;;;;;;19.92;16.20;;;;;;;;;;5061628;28;20025;-79
2022/10/14 03:47:39;;;;;;;22.33;15.63;;;;;;;;;;5060237;28;20554;-79
2022/10/14 03:50:05;;;;;;;21.63;16.80;;;;;;;;;;5060189;28;20498;-75
2022/10/14 03:52:31;;;;;;;23.00;17.55;;;;;;;;;;5053640;28;20044;-76
2022/10/14 03:54:58;;;;;;;27.95;16.92;;;;;;;;;;5058406;28;20021;-80
2022/10/14 03:57:24;;;;;;;25.42;16.73;;;;;;;;;;5062084;28;20029;-80
2022/10/14 03:59:50;;;;;;;24.80;17.38;;;;;;;;;;5061024;28;20029;-78
2022/10/14 04:02:16;;;;;;;23.90;16.77;;;;;;;;;;5059486;28;20025;-77
2022/10/14 04:04:42;;;;;;;24.70;17.00;;;;;;;;;;5061587;28;20100;-78
2022/10/14 04:07:08;;;;;;;27.30;18.48;;;;;;;;;;5073674;28;20055;-80
2022/10/14 04:09:34;;;;;;;22.90;17.00;;;;;;;;;;5063158;28;20157;-80
2022/10/14 04:12:00;;;;;;;28.02;18.40;;;;;;;;;;5059765;28;20448;-76
2022/10/14 04:14:26;;;;;;;26.77;17.75;;;;;;;;;;5061570;28;20025;-80
2022/10/14 04:16:52;;;;;;;26.13;17.38;;;;;;;;;;5062162;28;20021;-77
2022/10/14 04:19:18;;;;;;;22.20;17.65;;;;;;;;;;5061178;28;20031;-78
2022/10/14 04:21:44;;;;;;;23.55;16.65;;;;;;;;;;5065490;28;20056;-79
2022/10/14 04:24:11;;;;;;;22.42;16.48;;;;;;;;;;5049853;28;20096;-79
2022/10/14 04:26:37;;;;;;;28.48;17.73;;;;;;;;;;5051553;28;20024;-78
2022/10/14 04:29:03;;;;;;;22.90;16.38;;;;;;;;;;5065338;28;20028;-80
2022/10/14 04:31:32;;;;;;;23.88;17.05;;;;;;;;;;5066317;28;20024;-76
2022/10/14 04:33:58;;;;;;;28.63;17.42;;;;;;;;;;5073623;28;20509;-79
2022/10/14 04:36:24;;;;;;;25.15;18.23;;;;;;;;;;5068408;28;20085;-78
2022/10/14 04:38:51;;;;;;;25.95;18.08;;;;;;;;;;5064998;28;20029;-78
2022/10/14 04:41:17;;;;;;;24.05;17.95;;;;;;;;;;5065889;28;20024;-79
2022/10/14 04:43:43;;;;;;;23.30;16.95;;;;;;;;;;5070496;28;20043;-79
2022/10/14 04:46:09;;;;;;;27.27;18.52;;;;;;;;;;5059223;28;20498;-79
2022/10/14 04:48:35;;;;;;;24.20;18.00;;;;;;;;;;5062402;28;20051;-76
2022/10/14 04:51:01;;;;;;;29.23;17.42;;;;;;;;;;5066679;28;20068;-78
2022/10/14 04:53:28;;;;;;;27.50;18.20;;;;;;;;;;5071715;28;20394;-78
2022/10/14 04:55:54;;;;;;;22.10;16.92;;;;;;;;;;5070007;28;20021;-77
2022/10/14 04:58:20;;;;;;;25.35;17.67;;;;;;;;;;5064237;28;20028;-78
2022/10/14 05:00:46;;;;;;;25.30;17.88;;;;;;;;;;5065841;28;20025;-79
2022/10/14 05:03:12;;;;;;;28.17;17.45;;;;;;;;;;5065919;28;20025;-76
2022/10/14 05:05:38;;;;;;;26.00;17.73;;;;;;;;;;5067901;28;20025;-77
2022/10/14 05:08:06;;;;;;;25.38;18.02;;;;;;;;;;5068369;28;20043;-79
2022/10/14 05:10:33;;;;;;;24.98;17.02;;;;;;;;;;5068397;28;20067;-77
2022/10/14 05:12:59;;;;;;;24.73;16.70;;;;;;;;;;5057668;28;20032;-76
2022/10/14 05:15:25;;;;;;;24.35;16.35;;;;;;;;;;5065450;28;20021;-78
2022/10/14 05:17:51;;;;;;;27.08;17.80;;;;;;;;;;5055162;28;20067;-76
2022/10/14 05:20:17;;;;;;;24.30;16.95;;;;;;;;;;5056405;28;20045;-76
2022/10/14 05:22:44;;;;;;;24.33;17.83;;;;;;;;;;5056662;28;20109;-76
2022/10/14 05:25:10;;;;;;;26.33;18.73;;;;;;;;;;5054299;28;20474;-74
2022/10/14 05:27:36;;;;;;;25.13;18.15;;;;;;;;;;5051452;28;20055;-74
2022/10/14 05:30:02;;;;;;;26.88;18.13;;;;;;;;;;5058003;28;20028;-76
2022/10/14 05:32:29;;;;;;;28.65;18.67;;;;;;;;;;5054545;28;20032;-75
2022/10/14 05:34:55;;;;;;;24.42;18.60;;;;;;;;;;5058230;28;20024;-77
2022/10/14 05:37:21;;;;;;;24.30;20.02;;;;;;;;;;5066396;28;20390;-73
2022/10/14 05:39:47;;;;;;;29.98;21.40;;;;;;;;;;5068900;28;20036;-76
2022/10/14 05:42:13;;;;;;;29.98;21.60;;;;;;;;;;5055126;28;20040;-75
2022/10/14 05:44:39;;;;;;;28.45;20.98;;;;;;;;;;5053918;28;20033;-76
2022/10/14 05:47:05;;;;;;;30.00;19.75;;;;;;;;;;5051461;28;20075;-74
2022/10/14 05:49:31;;;;;;;29.23;19.92;;;;;;;;;;5051047;28;20048;-75
2022/10/14 05:51:57;;;;;;;31.55;21.10;;;;;;;;;;5054065;28;20389;-73
2022/10/14 05:54:23;;;;;;;23.65;19.35;;;;;;;;;;5056016;28;20070;-74
2022/10/14 05:56:49;;;;;;;28.67;19.23;;;;;;;;;;5056879;28;20025;-73
2022/10/14 05:59:15;;;;;;;28.58;19.60;;;;;;;;;;5055664;28;20036;-74
2022/10/14 06:01:42;;;;;;;29.23;19.05;;;;;;;;;;5056359;28;20025;-74
2022/10/14 06:04:08;;;;;;;25.45;18.60;;;;;;;;;;5051250;28;20041;-75
2022/10/14 06:06:34;;;;;;;22.88;17.83;;;;;;;;;;5052786;28;20048;-76
2022/10/14 11:39:49;;;;;;;15.55;6.97;;;;;;;;;;5151531;27;20371;-77
2022/10/14 11:42:15;;;;;;;15.13;7.28;;;;;;;;;;5137544;27;20031;-76
2022/10/14 11:44:42;;;;;;;9.93;6.50;;;;;;;;;;5120823;28;20554;-77
2022/10/14 11:47:18;;;;;;;17.23;6.82;;;;;;;;;;5129774;28;20028;-77
2022/10/14 11:49:52;;;;;;;17.08;7.10;;;;;;;;;;5129958;28;20430;-77
2022/10/14 11:52:25;;;;;;;14.45;6.30;;;;;;;;;;5127463;28;20057;-77
2022/10/14 11:55:12;;;;;;;14.38;6.70;;;;;;;;;;5127035;28;20035;-77
2022/10/14 11:57:58;;;;;;;11.35;6.40;;;;;;;;;;5130232;28;20038;-76
2022/10/14 12:00:30;;;;;;;12.77;7.18;;;;;;;;;;5131541;28;20031;-77
2022/10/14 12:03:08;;;;;;;15.98;7.15;;;;;;;;;;5125848;27;20072;-77
2022/10/14 12:05:38;;;;;;;14.38;6.82;;;;;;;;;;5126180;28;20058;-76
2022/10/14 12:08:17;;;;;;;13.20;6.78;;;;;;;;;;5125544;28;20043;-77
2022/10/14 12:10:45;;;;;;;13.60;6.90;;;;;;;;;;5125530;28;20027;-77
2022/10/14 12:13:16;;;;;;;14.57;6.95;;;;;;;;;;5129493;27;20076;-76
2022/10/14 12:15:44;;;;;;;22.15;11.70;;;;;;;;;;5130618;28;20020;-76
2022/10/14 12:18:11;;;;;;;13.50;8.52;;;;;;;;;;5130885;28;20489;-77
2022/10/14 12:20:37;;;;;;;9.60;6.47;;;;;;;;;;5123328;28;20061;-76
2022/10/14 12:23:07;;;;;;;13.52;7.00;;;;;;;;;;5131672;28;20016;-76
2022/10/14 12:25:39;;;;;;;11.20;6.65;;;;;;;;;;5127407;27;20106;-76
2022/10/14 12:28:07;;;;;;;9.73;6.03;;;;;;;;;;5133155;27;20031;-75
2022/10/14 12:30:35;;;;;;;16.85;6.47;;;;;;;;;;5132950;28;20445;-76
2022/10/14 12:33:05;;;;;;;25.25;6.43;;;;;;;;;;5120156;27;20058;-76
2022/10/14 12:35:49;;;;;;;10.90;6.15;;;;;;;;;;5119744;28;20027;-76
2022/10/14 12:38:16;;;;;;;13.60;6.63;;;;;;;;;;5115678;27;20147;-76
2022/10/14 12:40:42;;;;;;;13.40;6.35;;;;;;;;;;5109555;28;20059;-76
2022/10/14 12:43:23;;;;;;;15.15;6.05;;;;;;;;;;5088552;28;20043;-76
2022/10/14 12:46:09;;;;;;;15.18;5.93;;;;;;;;;;5095011;28;20024;-75
2022/10/14 12:48:36;;;;;;;9.93;6.57;;;;;;;;;;5066547;28;20464;-75
2022/10/14 12:51:07;;;;;;;13.88;6.18;;;;;;;;;;5094555;28;20020;-75
2022/10/14 12:53:35;;;;;;;12.98;5.80;;;;;;;;;;5094709;28;20028;-75
2022/10/14 12:56:03;;;;;;;10.70;6.35;;;;;;;;;;5095441;28;20414;-75
2022/10/14 12:58:34;;;;;;;8.88;5.30;;;;;;;;;;5095552;28;20475;-75
2022/10/14 13:01:02;;;;;;;10.80;5.82;;;;;;;;;;5095373;28;20028;-75
2022/10/14 13:03:34;;;;;;;17.33;6.53;;;;;;;;;;5101479;28;20404;-76
2022/10/14 13:06:19;;;;;;;15.18;5.63;;;;;;;;;;5094834;28;20012;-76
2022/10/14 13:09:05;;;;;;;11.27;5.63;;;;;;;;;;5094546;28;20044;-76
2022/10/14 13:11:35;;;;;;;9.20;5.45;;;;;;;;;;5082349;28;20027;-75
2022/10/14 13:14:02;;;;;;;11.88;5.30;;;;;;;;;;5094714;28;20088;-77
2022/10/14 13:16:28;;;;;;;12.18;5.70;;;;;;;;;;5087356;28;20568;-76
2022/10/14 13:18:57;;;;;;;9.25;5.57;;;;;;;;;;5094081;28;20094;-75
2022/10/14 13:21:26;;;;;;;9.73;5.28;;;;;;;;;;5096826;28;20028;-76
2022/10/14 13:23:54;;;;;;;15.35;5.40;;;;;;;;;;5092574;28;21456;-76
2022/10/14 13:26:43;;;;;;;10.13;5.90;;;;;;;;;;5091469;28;21202;-76
2022/10/14 13:29:15;;;;;;;9.55;5.38;;;;;;;;;;5084267;28;20040;-76
2022/10/14 13:31:42;;;;;;;12.18;5.68;;;;;;;;;;5095604;28;20426;-76
2022/10/14 13:34:14;;;;;;;8.52;5.05;;;;;;;;;;5092727;28;20415;-75
2022/10/14 13:36:53;;;;;;;17.83;6.35;;;;;;;;;;5091518;28;20016;-75
2022/10/14 13:39:19;;;;;;;14.23;5.65;;;;;;;;;;5094917;28;20071;-75
2022/10/14 13:41:46;;;;;;;13.68;5.95;;;;;;;;;;5111238;28;20034;-75
2022/10/14 13:44:12;;;;;;;8.38;5.70;;;;;;;;;;5104557;28;20508;-75
2022/10/14 13:46:42;;;;;;;13.90;5.18;;;;;;;;;;5092786;28;20050;-75
2022/10/14 13:49:14;;;;;;;12.45;5.50;;;;;;;;;;5099176;28;20036;-75
2022/10/14 13:51:55;;;;;;;12.85;5.60;;;;;;;;;;5113603;28;20024;-75
2022/10/14 13:54:26;;;;;;;11.30;5.25;;;;;;;;;;5104789;28;20051;-76
2022/10/14 13:56:59;;;;;;;11.55;5.47;;;;;;;;;;5097822;28;20531;-76
2022/10/14 13:59:25;;;;;;;16.80;6.40;;;;;;;;;;5114790;28;20020;-76
2022/10/14 14:01:54;;;;;;;18.23;6.35;;;;;;;;;;5097690;28;20032;-76
2022/10/14 14:04:24;;;;;;;20.50;6.75;;;;;;;;;;5094716;28;20030;-76
2022/10/14 14:06:50;;;;;;;14.00;6.03;;;;;;;;;;5100763;28;20065;-75
2022/10/14 14:09:19;;;;;;;12.13;5.38;;;;;;;;;;5109602;28;20046;-76
2022/10/14 14:11:46;;;;;;;14.05;6.75;;;;;;;;;;5094672;28;20073;-77
2022/10/14 14:14:20;;;;;;;9.85;5.65;;;;;;;;;;5098283;28;20049;-76
2022/10/14 14:16:59;;;;;;;16.65;6.45;;;;;;;;;;5094768;28;20115;-76
2022/10/14 14:19:26;;;;;;;11.30;5.60;;;;;;;;;;5091100;28;20050;-76
2022/10/14 14:22:11;;;;;;;11.30;5.55;;;;;;;;;;5089337;28;20024;-76
2022/10/14 14:24:37;;;;;;;13.63;5.28;;;;;;;;;;5091133;28;20032;-76
2022/10/14 14:27:03;;;;;;;11.23;4.82;;;;;;;;;;5088138;28;20032;-75
2022/10/14 14:29:32;;;;;;;21.30;5.63;;;;;;;;;;5082844;28;20114;-75
2022/10/14 14:31:59;;;;;;;10.90;5.85;;;;;;;;;;5089987;28;20020;-75
2022/10/14 14:34:25;;;;;;;11.23;5.15;;;;;;;;;;5088535;28;20500;-74
2022/10/14 14:36:52;;;;;;;6.95;5.20;;;;;;;;;;5091613;28;20032;-75
2022/10/14 14:39:35;;;;;;;10.45;5.38;;;;;;;;;;5090892;28;20055;-75
2022/10/14 14:42:01;;;;;;;14.40;5.00;;;;;;;;;;5088306;28;20032;-74
2022/10/14 14:44:29;;;;;;;23.05;5.45;;;;;;;;;;5091170;28;20103;-76
2022/10/14 14:47:03;;;;;;;10.55;5.00;;;;;;;;;;5094468;22;20048;-76
2022/10/14 14:49:30;;;;;;;16.00;6.25;;;;;;;;;;5064928;28;20032;-75
2022/10/14 14:51:57;;;;;;;9.18;5.32;;;;;;;;;;5063376;28;20048;-75
2022/10/14 14:54:27;;;;;;;13.18;5.25;;;;;;;;;;5083486;28;20099;-76
2022/10/14 14:57:04;;;;;;;7.70;4.80;;;;;;;;;;5086858;28;20020;-76
2022/10/14 14:59:34;;;;;;;8.27;4.65;;;;;;;;;;5084347;28;20020;-75
2022/10/14 15:02:01;;;;;;;9.50;5.15;;;;;;;;;;5079179;28;20062;-75
2022/10/14 15:04:29;;;;;;;8.88;5.25;;;;;;;;;;5083435;28;20046;-74
2022/10/14 15:07:05;;;;;;;13.63;5.30;;;;;;;;;;5111849;22;20586;-73
2022/10/14 15:09:36;;;;;;;14.13;5.55;;;;;;;;;;5075295;28;20081;-74
2022/10/14 15:12:03;;;;;;;11.93;4.95;;;;;;;;;;5091972;28;20028;-74
2022/10/14 15:14:34;;;;;;;13.90;5.05;;;;;;;;;;5092483;28;20456;-74
2022/10/14 15:17:04;;;;;;;9.23;5.15;;;;;;;;;;5092269;28;20028;-74
2022/10/14 15:19:32;;;;;;;11.07;5.25;;;;;;;;;;5091583;28;20020;-74
2022/10/14 15:22:20;;;;;;;10.93;5.40;;;;;;;;;;5092441;28;20425;-74
2022/10/14 15:24:56;;;;;;;15.50;5.05;;;;;;;;;;5085236;28;20032;-75
2022/10/14 15:27:34;;;;;;;10.18;5.90;;;;;;;;;;5079399;28;20028;-74
2022/10/14 15:30:15;;;;;;;15.55;6.00;;;;;;;;;;5090189;28;20039;-74
2022/10/14 15:32:41;;;;;;;15.13;5.75;;;;;;;;;;5100950;28;20077;-74
2022/10/14 15:35:11;;;;;;;13.68;6.10;;;;;;;;;;5096497;28;20038;-74
2022/10/14 15:37:37;;;;;;;12.63;5.40;;;;;;;;;;5092059;28;20043;-74
2022/10/14 15:40:04;;;;;;;11.18;5.47;;;;;;;;;;5092289;28;20032;-74
2022/10/14 15:42:30;;;;;;;12.30;6.10;;;;;;;;;;5075251;28;20032;-74
2022/10/14 15:44:56;;;;;;;8.32;5.78;;;;;;;;;;5091752;28;20028;-75
2022/10/14 15:47:24;;;;;;;15.38;6.15;;;;;;;;;;5092722;28;20536;-73
2022/10/14 15:49:50;;;;;;;12.05;7.43;;;;;;;;;;5092719;28;20466;-75
2022/10/14 15:52:16;;;;;;;20.10;7.82;;;;;;;;;;5092430;28;20028;-74
2022/10/14 15:54:44;;;;;;;19.60;7.88;;;;;;;;;;5089852;28;20496;-73
2022/10/14 15:57:11;;;;;;;12.90;6.93;;;;;;;;;;5081875;28;20039;-73
2022/10/14 15:59:37;;;;;;;16.00;7.20;;;;;;;;;;5092187;28;20074;-74
2022/10/14 16:02:23;;;;;;;15.48;6.85;;;;;;;;;;5088923;28;20469;-75
2022/10/14 16:04:50;;;;;;;22.02;7.53;;;;;;;;;;5087988;28;20058;-74
2022/10/14 16:07:16;;;;;;;16.17;6.93;;;;;;;;;;5097895;28;20408;-73
2022/10/14 16:09:42;;;;;;;19.42;6.80;;;;;;;;;;5101563;28;20020;-76
2022/10/14 16:12:12;;;;;;;16.75;6.70;;;;;;;;;;5102238;28;20373;-76
2022/10/14 16:14:38;;;;;;;26.35;7.25;;;;;;;;;;5089215;28;20025;-74
2022/10/14 16:17:05;;;;;;;22.75;7.15;;;;;;;;;;5113615;28;20015;-76
2022/10/14 16:19:31;;;;;;;19.25;7.47;;;;;;;;;;5106104;28;20122;-75
2022/10/14 16:21:57;;;;;;;11.57;7.15;;;;;;;;;;5096366;28;20051;-75
2022/10/14 16:24:26;;;;;;;18.08;7.38;;;;;;;;;;5105099;28;20107;-75
2022/10/14 16:26:53;;;;;;;14.02;7.70;;;;;;;;;;5109699;28;20476;-74
2022/10/14 16:29:20;;;;;;;14.65;7.45;;;;;;;;;;5109067;28;20036;-76
2022/10/14 16:31:48;;;;;;;16.77;8.20;;;;;;;;;;5098460;28;20101;-75
2022/10/14 16:34:19;;;;;;;31.33;8.23;;;;;;;;;;5110981;28;20030;-76
2022/10/14 16:36:47;;;;;;;29.70;9.02;;;;;;;;;;5101968;28;20099;-74
2022/10/14 16:39:14;;;;;;;25.08;9.65;;;;;;;;;;5106815;28;20548;-75
2022/10/14 16:41:40;;;;;;;15.27;9.13;;;;;;;;;;5116978;28;20024;-74
2022/10/14 16:44:06;;;;;;;24.20;9.80;;;;;;;;;;5107687;28;20064;-76
2022/10/14 16:49:38;;;;;;;17.30;8.90;;;;;;;;;;5027248;28;20048;-75
2022/10/14 16:52:05;;;;;;;18.52;8.30;;;;;;;;;;5032108;28;20033;-75
2022/10/14 16:54:31;;;;;;;29.20;15.43;;;;;;;;;;5015962;28;20388;-76
2022/10/14 16:56:57;;;;;;;17.80;8.77;;;;;;;;;;5015129;28;20399;-74
2022/10/14 16:59:23;;;;;;;13.63;8.40;;;;;;;;;;5022154;28;20120;-75
2022/10/14 17:01:50;;;;;;;13.68;7.85;;;;;;;;;;5018282;28;20081;-75
2022/10/14 17:04:18;;;;;;;17.83;8.43;;;;;;;;;;5015248;28;20068;-73
2022/10/14 17:06:45;;;;;;;25.38;8.65;;;;;;;;;;5007115;28;20053;-74
2022/10/14 17:09:11;;;;;;;16.48;9.10;;;;;;;;;;4994266;28;20034;-76
2022/10/14 17:11:37;;;;;;;16.55;8.82;;;;;;;;;;5004738;28;20021;-76
2022/10/14 17:14:04;;;;;;;18.23;9.38;;;;;;;;;;4997634;28;20034;-76
2022/10/14 17:16:30;;;;;;;15.07;8.98;;;;;;;;;;5009427;28;20042;-75
2022/10/14 17:18:57;;;;;;;16.98;9.52;;;;;;;;;;4993623;28;20037;-75
2022/10/14 17:21:26;;;;;;;20.02;9.52;;;;;;;;;;5046604;28;20033;-74
2022/10/14 17:23:53;;;;;;;19.67;10.60;;;;;;;;;;5074706;28;20021;-74
2022/10/14 17:26:19;;;;;;;19.13;10.52;;;;;;;;;;5057248;28;20021;-74
2022/10/14 17:28:46;;;;;;;19.42;11.43;;;;;;;;;;5065499;28;20032;-74
2022/10/14 17:31:19;;;;;;;21.52;11.65;;;;;;;;;;5074031;28;20024;-74
2022/10/14 17:33:45;;;;;;;20.17;11.85;;;;;;;;;;5067942;28;20100;-74
2022/10/14 17:36:22;;;;;;;25.10;15.32;;;;;;;;;;5057697;28;20031;-74
2022/10/14 17:38:49;;;;;;;26.73;16.13;;;;;;;;;;5048199;28;20039;-74
2022/10/14 17:41:16;;;;;;;23.00;14.10;;;;;;;;;;5074102;28;20107;-74
2022/10/14 17:43:42;;;;;;;21.02;12.20;;;;;;;;;;5054359;28;20025;-74
2022/10/14 17:46:12;;;;;;;23.38;12.02;;;;;;;;;;5053950;28;20017;-75
2022/10/14 17:48:42;;;;;;;20.20;11.68;;;;;;;;;;5057885;28;20029;-75
2022/10/14 17:51:12;;;;;;;20.17;11.38;;;;;;;;;;5064624;28;20024;-75
2022/10/14 17:53:39;;;;;;;22.42;11.43;;;;;;;;;;5071012;28;20427;-75
2022/10/14 17:56:06;;;;;;;22.35;10.23;;;;;;;;;;5053547;28;20029;-73
2022/10/14 17:58:32;;;;;;;17.30;10.10;;;;;;;;;;5065124;28;20070;-74
2022/10/14 18:01:04;;;;;;;22.90;9.55;;;;;;;;;;5073748;28;20096;-76
2022/10/14 18:03:32;;;;;;;13.57;9.10;;;;;;;;;;5069276;28;20079;-74
2022/10/14 18:05:59;;;;;;;16.13;8.77;;;;;;;;;;5060506;28;20431;-75
2022/10/14 18:08:25;;;;;;;15.25;9.10;;;;;;;;;;5094064;28;20397;-75
2022/10/14 18:10:51;;;;;;;17.33;8.80;;;;;;;;;;5079981;28;20035;-75
2022/10/14 18:13:17;;;;;;;16.13;8.82;;;;;;;;;;5093589;28;20027;-75
2022/10/14 18:15:43;;;;;;;14.88;8.10;;;;;;;;;;5079127;28;20508;-75
2022/10/14 18:18:10;;;;;;;14.60;8.18;;;;;;;;;;5093818;28;20028;-74
2022/10/14 18:20:36;;;;;;;23.77;8.90;;;;;;;;;;5081242;28;20017;-74
2022/10/14 18:23:02;;;;;;;14.82;8.13;;;;;;;;;;5073358;28;20025;-75
2022/10/14 18:25:29;;;;;;;12.88;7.68;;;;;;;;;;5076942;28;20070;-75
2022/10/14 18:27:55;;;;;;;13.35;8.10;;;;;;;;;;5092718;28;20032;-75
2022/10/14 18:30:21;;;;;;;16.02;8.55;;;;;;;;;;5089944;28;20512;-74
2022/10/14 18:32:47;;;;;;;13.05;8.18;;;;;;;;;;5091063;28;20423;-74
2022/10/14 18:35:13;;;;;;;16.98;8.77;;;;;;;;;;5083896;28;20043;-74
2022/10/14 18:37:39;;;;;;;14.55;8.88;;;;;;;;;;5076713;28;20127;-75
2022/10/14 18:40:05;;;;;;;16.52;8.10;;;;;;;;;;5090694;28;20028;-75
2022/10/14 18:42:31;;;;;;;17.67;8.57;;;;;;;;;;5103231;28;20126;-74
2022/10/14 18:44:58;;;;;;;13.48;8.45;;;;;;;;;;5076780;28;20028;-74
2022/10/14 18:47:24;;;;;;;14.65;7.47;;;;;;;;;;5080508;28;20056;-76
2022/10/14 18:49:50;;;;;;;12.65;7.50;;;;;;;;;;5093292;28;20526;-74
2022/10/14 18:52:17;;;;;;;14.45;8.20;;;;;;;;;;5073865;28;20059;-74
2022/10/14 18:54:43;;;;;;;16.70;8.43;;;;;;;;;;5075579;28;20477;-74
2022/10/14 18:57:13;;;;;;;12.32;7.50;;;;;;;;;;5091038;28;20055;-74
2022/10/14 18:59:40;;;;;;;12.98;8.07;;;;;;;;;;5083982;28;20103;-75
2022/10/14 19:02:08;;;;;;;10.48;7.53;;;;;;;;;;5089271;28;20415;-75
2022/10/14 19:04:34;;;;;;;14.95;7.90;;;;;;;;;;5081563;28;20032;-75
2022/10/14 19:07:00;;;;;;;15.10;7.32;;;;;;;;;;5101395;28;20480;-74
2022/10/14 19:09:28;;;;;;;11.43;7.72;;;;;;;;;;5106219;28;20032;-75
2022/10/14 19:11:56;;;;;;;10.57;6.78;;;;;;;;;;5106568;28;20453;-74
2022/10/14 19:14:22;;;;;;;18.45;7.85;;;;;;;;;;5095615;28;20020;-74
2022/10/14 19:16:48;;;;;;;13.40;7.70;;;;;;;;;;5103764;28;20468;-75
2022/10/14 19:19:17;;;;;;;15.70;7.68;;;;;;;;;;5096959;28;20388;-74
2022/10/14 19:21:43;;;;;;;10.82;7.25;;;;;;;;;;5113454;28;20024;-74
2022/10/14 19:24:11;;;;;;;11.23;7.10;;;;;;;;;;5096863;28;20434;-75
2022/10/14 19:26:38;;;;;;;17.13;7.65;;;;;;;;;;5102406;28;20088;-75
2022/10/14 19:29:05;;;;;;;15.43;7.63;;;;;;;;;;5107334;28;20066;-74
2022/10/14 19:31:32;;;;;;;15.75;7.80;;;;;;;;;;5112814;28;20023;-74
2022/10/14 19:34:03;;;;;;;12.63;7.50;;;;;;;;;;5099530;28;20024;-75
2022/10/14 19:36:29;;;;;;;10.93;7.65;;;;;;;;;;5095190;28;20515;-75
2022/10/14 19:38:56;;;;;;;12.23;7.95;;;;;;;;;;5100796;28;20027;-75
2022/10/14 19:41:26;;;;;;;14.15;7.93;;;;;;;;;;5098574;28;20063;-76
2022/10/14 19:43:52;;;;;;;16.02;8.45;;;;;;;;;;5078869;28;20028;-73
2022/10/14 19:46:21;;;;;;;12.23;8.20;;;;;;;;;;5091455;28;20358;-76
2022/10/14 19:48:47;;;;;;;12.63;7.88;;;;;;;;;;5108909;28;20032;-75
2022/10/14 19:51:15;;;;;;;13.82;8.02;;;;;;;;;;5105979;28;20091;-75
2022/10/14 19:53:41;;;;;;;14.45;8.45;;;;;;;;;;5112118;28;20020;-75
2022/10/14 19:56:08;;;;;;;13.77;8.48;;;;;;;;;;5105480;28;20392;-75
2022/10/14 19:58:34;;;;;;;17.02;8.27;;;;;;;;;;5112247;28;20024;-75
2022/10/14 20:01:10;;;;;;;16.42;8.48;;;;;;;;;;5109044;28;20016;-75
2022/10/14 20:03:38;;;;;;;13.73;8.10;;;;;;;;;;5096619;28;20032;-76
2022/10/14 20:06:04;;;;;;;13.60;7.95;;;;;;;;;;5103034;28;20090;-76